Time;durP1;ratioP1;P1;durP2;ratioP2;P2;SDS_P1;SDS_P2;PMS_P1;PMS_P2;Temp;Humidity;BMP_temperature;BMP_pressure;BME280_temperature;BME280_humidity;BME280_pressure;Samples;Min_cycle;Max_cycle;Signal;HPM_P1;HPM_P2
2022/12/02 00:04:21;;;;;;;1.75;1.65;;;;;;;2.33;100.00;102890.66;10415503;28;20052;-83
2022/12/02 00:09:34;;;;;;;3.47;1.13;;;;;;;2.24;100.00;102879.63;10408460;28;20144;-84
2022/12/02 00:14:37;;;;;;;3.55;1.90;;;;;;;2.25;100.00;102886.50;10413965;28;20055;-82
2022/12/02 00:19:40;;;;;;;2.00;1.55;;;;;;;2.27;100.00;102864.66;10399291;28;20108;-82
2022/12/02 00:24:42;;;;;;;2.40;1.85;;;;;;;2.26;100.00;102870.50;10413334;28;20540;-83
2022/12/02 00:29:43;;;;;;;2.63;1.55;;;;;;;2.21;100.00;102860.78;10413637;28;20507;-82
2022/12/02 00:34:45;;;;;;;2.65;0.80;;;;;;;2.20;100.00;102864.06;10426023;28;20029;-82
2022/12/02 00:39:47;;;;;;;3.63;1.48;;;;;;;2.21;100.00;102862.44;10424568;28;20064;-82
2022/12/02 00:50:09;;;;;;;2.33;1.80;;;;;;;2.16;100.00;102854.38;10413670;28;20049;-79
2022/12/02 00:55:11;;;;;;;1.80;1.70;;;;;;;2.18;100.00;102865.59;10412672;28;20068;-78
2022/12/02 01:00:13;;;;;;;4.65;2.33;;;;;;;2.16;100.00;102861.13;10414244;28;20041;-78
2022/12/02 01:05:15;;;;;;;1.00;0.82;;;;;;;2.14;100.00;102867.72;10413656;28;20386;-77
2022/12/02 01:10:17;;;;;;;1.38;1.27;;;;;;;2.12;100.00;102867.59;10414302;28;20045;-77
2022/12/02 01:15:22;;;;;;;2.63;1.63;;;;;;;2.06;100.00;102859.38;10414083;28;20041;-78
2022/12/02 01:20:23;;;;;;;3.53;1.50;;;;;;;2.10;100.00;102855.47;10414037;28;20038;-77
2022/12/02 01:25:25;;;;;;;1.15;1.05;;;;;;;2.08;100.00;102844.28;10397527;28;20489;-77
2022/12/02 01:30:29;;;;;;;5.50;1.77;;;;;;;2.12;100.00;102849.78;10413996;28;20046;-78
2022/12/02 01:35:31;;;;;;;1.27;1.17;;;;;;;2.04;100.00;102846.53;10398331;28;20064;-78
2022/12/02 01:40:33;;;;;;;1.63;1.52;;;;;;;2.06;100.00;102849.19;10415382;28;20493;-78
2022/12/02 01:45:35;;;;;;;13.40;1.55;;;;;;;2.10;100.00;102842.75;10411184;28;20466;-83
2022/12/02 01:50:36;;;;;;;7.15;2.53;;;;;;;2.11;100.00;102837.81;10410143;28;20392;-82
2022/12/02 01:55:38;;;;;;;4.72;2.05;;;;;;;2.09;100.00;102824.06;10410097;28;20107;-83
2022/12/02 02:00:40;;;;;;;3.17;2.60;;;;;;;2.11;100.00;102822.56;10411669;28;20053;-83
2022/12/02 02:05:42;;;;;;;3.88;3.25;;;;;;;2.14;100.00;102822.81;10409275;28;20485;-82
2022/12/02 02:10:45;;;;;;;0.63;0.63;;;;;;;2.12;100.00;102809.09;10409736;28;20045;-82
2022/12/02 02:15:48;;;;;;;4.55;2.15;;;;;;;2.16;100.00;102808.59;10397964;28;20050;-82
2022/12/02 02:20:56;;;;;;;2.65;1.52;;;;;;;2.15;100.00;102804.28;10401765;28;20044;-82
2022/12/02 02:25:59;;;;;;;2.00;1.80;;;;;;;2.15;100.00;102799.19;10442521;28;20045;-82
2022/12/02 02:31:05;;;;;;;0.35;0.35;;;;;;;2.11;100.00;102791.13;10425417;28;20057;-83
2022/12/02 02:36:12;;;;;;;3.53;1.88;;;;;;;2.15;100.00;102789.00;10417001;28;20046;-82
2022/12/02 02:41:14;;;;;;;0.88;0.85;;;;;;;2.15;100.00;102785.59;10399731;28;20048;-82
2022/12/02 02:46:16;;;;;;;0.32;0.30;;;;;;;2.12;100.00;102783.66;10395500;28;20080;-82
2022/12/02 02:51:18;;;;;;;3.92;1.45;;;;;;;2.11;100.00;102776.78;10400138;28;20049;-83
2022/12/02 02:56:20;;;;;;;0.65;0.65;;;;;;;2.14;100.00;102766.88;10415789;28;20053;-83
2022/12/02 03:01:32;;;;;;;0.35;0.35;;;;;;;2.12;100.00;102765.88;10399696;28;20048;-82
2022/12/02 03:06:38;;;;;;;1.60;0.80;;;;;;;2.15;100.00;102763.59;10415858;28;20041;-82
2022/12/02 03:11:42;;;;;;;1.50;0.77;;;;;;;2.17;100.00;102762.09;10416153;28;20056;-83
2022/12/02 03:16:45;;;;;;;3.53;0.93;;;;;;;2.14;100.00;102771.97;10399088;28;20076;-83
2022/12/02 03:21:47;;;;;;;8.68;1.15;;;;;;;2.11;100.00;102764.06;10416744;28;20037;-83
2022/12/02 03:26:49;;;;;;;2.85;1.10;;;;;;;2.17;100.00;102762.09;10415335;28;20046;-82
2022/12/02 03:31:51;;;;;;;0.75;0.40;;;;;;;2.17;100.00;102762.09;10416270;28;20072;-82
2022/12/02 03:36:53;;;;;;;2.42;1.27;;;;;;;2.21;100.00;102759.03;10414781;28;20076;-83
2022/12/02 03:41:55;;;;;;;2.95;1.25;;;;;;;2.18;100.00;102757.88;10399423;28;20041;-83
2022/12/02 03:46:57;;;;;;;2.78;0.90;;;;;;;2.11;100.00;102760.63;10416386;28;20045;-82
2022/12/02 03:51:59;;;;;;;1.17;1.00;;;;;;;2.13;100.00;102762.53;10414068;28;20060;-82
2022/12/02 03:57:04;;;;;;;11.43;1.98;;;;;;;2.13;100.00;102751.50;10396963;28;20084;-82
2022/12/02 04:02:06;;;;;;;1.38;0.77;;;;;;;2.12;100.00;102760.78;10413015;28;20049;-83
2022/12/02 04:07:08;;;;;;;0.40;0.40;;;;;;;2.08;100.00;102756.16;10413066;28;20069;-82
2022/12/02 04:12:10;;;;;;;2.53;1.10;;;;;;;2.11;100.00;102743.75;10412728;28;20051;-82
2022/12/02 04:17:11;;;;;;;0.20;0.20;;;;;;;2.10;100.00;102739.41;10413261;28;20041;-83
2022/12/02 04:22:13;;;;;;;0.80;0.52;;;;;;;2.11;100.00;102728.47;10425815;28;20021;-82
2022/12/02 04:27:15;;;;;;;4.38;2.03;;;;;;;2.12;100.00;102732.81;10440059;28;20045;-82
2022/12/02 04:32:16;;;;;;;1.33;1.10;;;;;;;2.10;100.00;102729.22;10413254;28;20053;-82
2022/12/02 04:37:19;;;;;;;1.35;0.98;;;;;;;2.09;100.00;102740.16;10395817;28;20049;-81
2022/12/02 04:42:21;;;;;;;1.65;1.55;;;;;;;2.08;100.00;102730.72;10412753;28;20052;-83
2022/12/02 04:47:23;;;;;;;2.35;1.35;;;;;;;2.06;100.00;102727.16;10412181;28;20033;-83
2022/12/02 04:52:24;;;;;;;1.33;1.23;;;;;;;2.06;100.00;102729.69;10412785;28;20045;-83
2022/12/02 04:57:26;;;;;;;0.20;0.20;;;;;;;2.05;100.00;102730.44;10395566;28;20053;-82
2022/12/02 05:02:33;;;;;;;4.63;3.05;;;;;;;2.02;100.00;102727.66;10411523;28;20057;-82
2022/12/02 05:07:34;;;;;;;0.93;0.93;;;;;;;2.02;100.00;102727.66;10411672;28;20124;-82
2022/12/02 05:12:36;;;;;;;3.10;1.58;;;;;;;2.02;100.00;102725.09;10411169;28;20053;-81
2022/12/02 05:17:38;;;;;;;0.90;0.55;;;;;;;2.05;100.00;102715.19;10412461;28;20041;-82
2022/12/02 05:22:43;;;;;;;1.45;1.17;;;;;;;1.99;100.00;102720.66;10412149;28;20451;-82
2022/12/02 05:27:45;;;;;;;0.90;0.90;;;;;;;1.99;100.00;102714.66;10395796;28;20045;-82
2022/12/02 05:32:47;;;;;;;1.05;0.95;;;;;;;1.97;100.00;102717.06;10395071;28;20049;-82
2022/12/02 05:37:48;;;;;;;1.73;0.57;;;;;;;1.98;100.00;102720.47;10410990;28;20050;-83
2022/12/02 05:42:50;;;;;;;3.40;1.35;;;;;;;1.97;100.00;102724.69;10410602;28;20087;-82
2022/12/02 05:47:53;;;;;;;1.25;1.15;;;;;;;1.93;100.00;102729.34;10410426;28;20046;-83
2022/12/02 05:52:54;;;;;;;0.85;0.75;;;;;;;1.91;100.00;102734.31;10417969;28;20049;-82
2022/12/02 05:58:00;;;;;;;3.53;1.98;;;;;;;1.85;100.00;102744.81;10420061;28;20068;-82
2022/12/02 06:03:06;;;;;;;1.08;0.75;;;;;;;1.84;100.00;102755.72;10401519;28;20073;-82
2022/12/02 06:08:17;;;;;;;0.98;0.90;;;;;;;1.77;100.00;102748.28;10402647;28;20045;-83
2022/12/02 06:13:24;;;;;;;2.97;1.20;;;;;;;1.84;100.00;102739.59;10422722;28;20103;-82
2022/12/02 06:18:32;;;;;;;1.05;0.75;;;;;;;1.79;100.00;102741.72;10434836;28;20592;-83
2022/12/02 06:23:35;;;;;;;0.73;0.73;;;;;;;1.73;100.00;102738.63;10418271;28;20046;-82
2022/12/02 06:28:38;;;;;;;4.05;1.10;;;;;;;1.72;100.00;102734.28;10418696;28;20125;-82
2022/12/02 06:33:41;;;;;;;2.05;0.88;;;;;;;1.76;100.00;102735.44;10417063;28;20068;-81
2022/12/02 06:39:01;;;;;;;1.95;0.95;;;;;;;1.71;100.00;102740.09;10418438;28;20045;-81
2022/12/02 06:49:44;;;;;;;2.78;2.00;;;;;;;1.58;100.00;102764.41;10429956;28;20485;-82
2022/12/02 06:54:46;;;;;;;1.17;0.80;;;;;;;1.48;100.00;102763.41;10423475;28;20064;-82
2022/12/02 06:59:50;;;;;;;1.38;1.27;;;;;;;1.40;100.00;102772.84;10415140;28;20072;-83
2022/12/02 07:04:54;;;;;;;0.52;0.52;;;;;;;1.42;100.00;102781.50;10435210;28;20045;-83
2022/12/02 07:09:59;;;;;;;9.40;2.55;;;;;;;1.37;100.00;102795.44;10417861;28;20041;-82
2022/12/02 07:15:19;;;;;;;0.77;0.77;;;;;;;1.41;100.00;102798.41;10434144;28;20247;-82
2022/12/02 07:20:36;;;;;;;7.88;0.45;;;;;;;1.41;100.00;102818.72;10433570;28;20094;-82
2022/12/02 07:25:43;;;;;;;1.92;1.30;;;;;;;1.45;100.00;102831.69;10435927;28;20492;-82
2022/12/02 07:31:09;;;;;;;0.85;0.68;;;;;;;1.45;100.00;102824.06;10417260;28;20042;-82
2022/12/02 07:36:11;;;;;;;0.65;0.65;;;;;;;1.48;100.00;102839.63;10425821;28;20464;-82
2022/12/02 07:41:12;;;;;;;0.57;0.52;;;;;;;1.51;100.00;102837.34;10433957;28;20090;-80
2022/12/02 07:46:14;;;;;;;0.30;0.30;;;;;;;1.57;100.00;102831.22;10434862;28;20037;-81
2022/12/02 07:51:16;;;;;;;1.90;1.13;;;;;;;1.57;100.00;102831.22;10430465;28;20472;-82
2022/12/02 07:56:17;;;;;;;1.75;1.52;;;;;;;1.63;100.00;102824.91;10448824;28;20052;-81
2022/12/02 08:01:19;;;;;;;5.63;2.58;;;;;;;1.64;100.00;102821.59;10435665;28;20114;-81
2022/12/02 08:06:21;;;;;;;0.93;0.88;;;;;;;1.62;100.00;102823.09;10428071;28;20064;-82
2022/12/02 08:11:22;;;;;;;0.80;0.70;;;;;;;1.67;100.00;102817.72;10402847;28;20077;-82
2022/12/02 08:16:24;;;;;;;1.13;1.02;;;;;;;1.67;100.00;102817.72;10414814;28;20081;-83
2022/12/02 08:21:27;;;;;;;2.35;1.95;;;;;;;1.66;100.00;102817.56;10412954;28;20520;-83
2022/12/02 08:26:29;;;;;;;6.70;2.55;;;;;;;1.71;100.00;102813.81;10399276;28;20049;-82
2022/12/02 08:31:30;;;;;;;4.38;1.90;;;;;;;1.68;100.00;102808.41;10420878;28;20078;-81
2022/12/02 08:36:33;;;;;;;2.03;1.60;;;;;;;1.73;100.00;102807.22;10414517;28;20488;-82
2022/12/02 08:41:36;;;;;;;1.90;1.77;;;;;;;1.75;100.00;102800.63;10434126;28;20091;-82
2022/12/02 08:46:38;;;;;;;0.25;0.25;;;;;;;1.65;100.00;102805.63;10399447;28;20416;-81
2022/12/02 08:51:39;;;;;;;0.50;0.50;;;;;;;1.68;100.00;102808.41;10405599;28;20495;-82
2022/12/02 08:56:42;;;;;;;1.50;1.38;;;;;;;1.68;100.00;102803.34;10407322;28;20128;-81
2022/12/02 09:01:45;;;;;;;1.55;0.82;;;;;;;1.65;100.00;102808.16;10408091;28;20049;-82
2022/12/02 09:06:48;;;;;;;1.80;1.27;;;;;;;1.66;100.00;102802.31;10395251;28;20056;-83
2022/12/02 09:11:50;;;;;;;2.75;2.15;;;;;;;1.80;100.00;102794.34;10411002;28;20037;-82
2022/12/02 09:16:51;;;;;;;1.65;0.95;;;;;;;1.79;100.00;102796.75;10413009;28;20054;-80
2022/12/02 09:21:53;;;;;;;10.23;1.38;;;;;;;1.76;100.00;102794.78;10413207;28;20133;-79
2022/12/02 09:26:55;;;;;;;0.88;0.70;;;;;;;1.78;100.00;102790.75;10393304;28;20497;-80
2022/12/02 09:31:56;;;;;;;0.55;0.50;;;;;;;1.67;100.00;102786.34;10395783;28;20050;-79
2022/12/02 09:36:58;;;;;;;0.73;0.73;;;;;;;1.68;100.00;102780.47;10414399;28;20083;-78
2022/12/02 09:42:00;;;;;;;0.63;0.45;;;;;;;1.69;100.00;102779.72;10423196;28;20087;-79
2022/12/02 09:47:02;;;;;;;2.05;1.38;;;;;;;1.68;100.00;102783.00;10412181;28;20092;-79
2022/12/02 09:52:12;;;;;;;4.85;2.03;;;;;;;1.72;100.00;102785.97;10411171;28;20049;-79
2022/12/02 09:57:16;;;;;;;1.60;1.37;;;;;;;1.89;100.00;102773.94;10412410;28;20072;-80
2022/12/02 10:02:27;;;;;;;11.48;1.75;;;;;;;1.82;100.00;102769.03;10413185;28;20076;-80
2022/12/02 10:07:29;;;;;;;3.72;2.63;;;;;;;1.77;100.00;102758.44;10411402;28;20050;-79
2022/12/02 10:12:31;;;;;;;0.70;0.70;;;;;;;1.77;100.00;102755.91;10397084;28;20069;-79
2022/12/02 10:17:33;;;;;;;5.20;2.75;;;;;;;1.78;100.00;102739.03;10403759;28;20053;-80
2022/12/02 10:23:13;;;;;;;0.30;0.30;;;;;;;1.87;100.00;102734.75;10402487;28;20103;-80
2022/12/02 10:28:27;;;;;;;2.33;1.33;;;;;;;2.18;100.00;102718.09;10408094;28;20050;-80
2022/12/02 10:33:31;;;;;;;0.98;0.75;;;;;;;2.10;100.00;102706.34;10408670;28;20137;-79
2022/12/02 10:38:44;;;;;;;4.75;1.20;;;;;;;2.08;100.00;102702.75;10416897;28;20091;-79
2022/12/02 10:43:51;;;;;;;0.80;0.63;;;;;;;2.00;100.00;102699.56;10419860;28;20045;-79
2022/12/02 10:48:54;;;;;;;0.57;0.52;;;;;;;2.01;100.00;102691.13;10433601;28;20041;-80
2022/12/02 10:54:28;;;;;;;2.58;1.73;;;;;;;2.06;100.00;102686.47;10426048;28;20443;-80
2022/12/02 10:59:31;;;;;;;3.60;0.75;;;;;;;1.91;100.00;102668.22;10430047;28;20073;-79
2022/12/02 11:04:33;;;;;;;0.15;0.15;;;;;;;2.04;100.00;102657.50;10425867;28;20456;-80
2022/12/02 11:09:39;;;;;;;3.50;1.63;;;;;;;2.11;100.00;102644.56;10410374;28;20085;-79
2022/12/02 11:14:41;;;;;;;0.75;0.75;;;;;;;2.15;100.00;102630.47;10408946;28;20049;-80
2022/12/02 11:19:45;;;;;;;0.50;0.50;;;;;;;2.18;100.00;102636.72;10437854;28;20472;-79
2022/12/02 11:24:47;;;;;;;2.53;0.63;;;;;;;2.09;100.00;102615.56;10425123;28;20085;-80
2022/12/02 11:30:14;;;;;;;2.25;1.13;;;;;;;1.96;100.00;102610.16;10450566;28;20041;-81
2022/12/02 11:35:38;;;;;;;1.00;0.75;;;;;;;2.01;100.00;102596.19;10423018;28;20102;-80
2022/12/02 11:40:40;;;;;;;1.15;0.95;;;;;;;2.04;100.00;102591.41;10432308;28;20397;-79
2022/12/02 11:45:45;;;;;;;7.10;1.60;;;;;;;2.03;100.00;102592.16;10418079;28;20087;-80
2022/12/02 11:50:46;;;;;;;4.13;0.88;;;;;;;2.09;100.00;102595.22;10397713;28;20075;-80
2022/12/02 11:55:53;;;;;;;1.88;1.00;;;;;;;2.03;100.00;102589.59;10414937;28;20503;-79
2022/12/02 12:01:24;;;;;;;1.10;0.45;;;;;;;2.06;100.00;102584.78;10416097;28;20370;-80
2022/12/02 12:06:28;;;;;;;2.45;1.73;;;;;;;1.98;100.00;102586.66;10414511;28;20049;-80
2022/12/02 12:11:36;;;;;;;13.80;1.17;;;;;;;1.88;100.00;102594.22;10395766;28;20056;-80
2022/12/02 12:16:42;;;;;;;5.10;0.75;;;;;;;2.09;100.00;102601.94;10425371;28;20068;-79
2022/12/02 12:21:51;;;;;;;0.60;0.43;;;;;;;1.83;100.00;102616.69;10435010;28;20030;-81
2022/12/02 12:26:57;;;;;;;0.38;0.35;;;;;;;1.80;100.00;102626.59;10413008;28;20045;-81
2022/12/02 12:31:59;;;;;;;0.55;0.55;;;;;;;1.54;100.00;102635.28;10411436;28;20547;-80
2022/12/02 12:37:01;;;;;;;5.05;1.65;;;;;;;1.51;100.00;102662.97;10400029;28;20085;-80
2022/12/02 12:42:02;;;;;;;0.68;0.63;;;;;;;1.39;100.00;102661.84;10399795;28;20148;-79
2022/12/02 12:47:05;;;;;;;2.00;0.88;;;;;;;1.57;100.00;102660.97;10399478;28;20456;-79
2022/12/02 12:52:07;;;;;;;1.63;1.05;;;;;;;1.61;100.00;102648.53;10435869;28;20025;-78
2022/12/02 12:57:09;;;;;;;0.10;0.10;;;;;;;1.72;100.00;102642.78;10418244;28;20045;-78
2022/12/02 13:02:10;;;;;;;3.13;2.67;;;;;;;1.64;100.00;102629.38;10409025;28;20049;-79
2022/12/02 13:07:12;;;;;;;0.73;0.73;;;;;;;1.64;100.00;102626.84;10413829;28;20049;-78
2022/12/02 13:12:17;;;;;;;1.17;1.10;;;;;;;1.74;100.00;102623.50;10403119;28;20394;-79
2022/12/02 13:17:23;;;;;;;2.20;1.27;;;;;;;1.67;100.00;102613.56;10403238;28;20061;-78
2022/12/02 13:22:24;;;;;;;1.98;1.17;;;;;;;1.63;100.00;102607.31;10409951;28;20049;-78
2022/12/02 13:28:19;;;;;;;4.60;2.75;;;;;;;1.51;100.00;102602.00;10414149;28;20099;-78
2022/12/02 13:33:26;;;;;;;1.77;1.67;;;;;;;1.38;100.00;102612.69;10422907;28;20080;-78
2022/12/02 13:38:34;;;;;;;25.58;1.50;;;;;;;1.38;100.00;102606.72;10414178;28;20552;-78
2022/12/02 13:43:37;;;;;;;13.45;2.13;;;;;;;1.36;100.00;102600.63;10412024;28;20519;-78
2022/12/02 13:48:39;;;;;;;8.30;4.40;;;;;;;1.42;100.00;102596.97;10408318;28;20117;-79
2022/12/02 13:53:42;;;;;;;5.80;2.17;;;;;;;1.35;100.00;102604.78;10417871;28;20128;-78
2022/12/02 13:58:43;;;;;;;0.93;0.93;;;;;;;1.51;100.00;102609.63;10394306;28;20029;-78
2022/12/02 14:03:45;;;;;;;2.25;2.05;;;;;;;1.36;100.00;102618.41;10400273;28;20077;-80
2022/12/02 14:08:47;;;;;;;4.97;2.22;;;;;;;1.38;100.00;102627.03;10385978;28;20137;-77
2022/12/02 14:13:49;;;;;;;5.35;2.90;;;;;;;1.35;100.00;102624.22;10404298;28;20073;-79
2022/12/02 14:18:50;;;;;;;2.78;1.10;;;;;;;1.25;100.00;102631.00;10416393;28;20041;-78
2022/12/02 14:23:57;;;;;;;4.63;2.60;;;;;;;1.19;100.00;102632.09;10406481;28;20501;-78
2022/12/02 14:28:59;;;;;;;0.75;0.75;;;;;;;1.19;100.00;102632.09;10392255;28;20405;-79
2022/12/02 14:34:01;;;;;;;1.33;1.23;;;;;;;1.21;100.00;102628.94;10404412;28;20057;-79
2022/12/02 14:39:12;;;;;;;1.85;1.05;;;;;;;1.17;100.00;102629.41;10417269;28;20033;-78
2022/12/02 14:44:14;;;;;;;2.53;2.15;;;;;;;1.18;100.00;102610.88;10415351;28;20050;-79
2022/12/02 14:49:15;;;;;;;0.98;0.90;;;;;;;1.21;100.00;102616.25;10376731;28;20050;-78
2022/12/02 14:54:37;;;;;;;2.25;1.35;;;;;;;1.20;100.00;102619.53;10422385;28;20049;-78
2022/12/02 14:59:40;;;;;;;4.22;1.80;;;;;;;1.16;100.00;102625.06;10414121;28;20425;-79
2022/12/02 15:04:44;;;;;;;2.53;1.85;;;;;;;1.17;100.00;102614.16;10408201;28;20079;-78
2022/12/02 15:09:45;;;;;;;4.13;1.40;;;;;;;1.16;100.00;102604.75;10423301;28;20409;-78
2022/12/02 15:14:49;;;;;;;6.15;2.05;;;;;;;1.21;100.00;102598.47;10398393;28;20050;-78
2022/12/02 15:19:54;;;;;;;6.63;2.08;;;;;;;1.19;100.00;102602.50;10431620;28;20180;-78
2022/12/02 15:24:55;;;;;;;2.63;2.08;;;;;;;1.16;100.00;102602.22;10412867;28;20041;-77
2022/12/02 15:29:57;;;;;;;0.28;0.28;;;;;;;1.21;100.00;102607.72;10402282;28;20128;-77
2022/12/02 15:34:58;;;;;;;1.65;1.23;;;;;;;1.18;100.00;102603.25;10389474;28;20136;-79
2022/12/02 15:40:00;;;;;;;0.65;0.65;;;;;;;1.21;100.00;102606.09;10401208;28;20045;-78
2022/12/02 15:45:02;;;;;;;4.05;2.53;;;;;;;1.22;100.00;102607.88;10402971;28;20053;-78
2022/12/02 15:50:04;;;;;;;0.88;0.70;;;;;;;1.20;100.00;102599.22;10404043;28;20046;-79
2022/12/02 15:55:06;;;;;;;0.80;0.73;;;;;;;1.22;100.00;102591.75;10422205;28;20045;-78
2022/12/02 16:00:08;;;;;;;2.45;2.25;;;;;;;1.19;100.00;102582.19;10423068;28;20042;-78
2022/12/02 16:05:10;;;;;;;3.08;2.67;;;;;;;1.21;100.00;102585.78;10386807;28;20417;-79
2022/12/02 16:10:11;;;;;;;0.65;0.65;;;;;;;1.20;100.00;102584.00;10376743;28;20164;-80
2022/12/02 16:15:13;;;;;;;4.93;2.30;;;;;;;1.20;100.00;102589.06;10425209;28;20073;-79
2022/12/02 16:20:17;;;;;;;3.92;2.08;;;;;;;1.23;100.00;102589.34;10415740;28;20148;-79
2022/12/02 16:25:19;;;;;;;1.10;0.77;;;;;;;1.23;100.00;102598.59;10404998;28;20096;-80
2022/12/02 16:30:20;;;;;;;0.73;0.65;;;;;;;1.22;100.00;102597.72;10416675;28;20080;-79
2022/12/02 16:35:22;;;;;;;2.13;1.95;;;;;;;1.26;100.00;102604.84;10410914;28;20053;-79
2022/12/02 16:40:24;;;;;;;2.13;1.92;;;;;;;1.24;100.00;102597.84;10403129;28;20120;-79
2022/12/02 16:45:25;;;;;;;4.68;2.25;;;;;;;1.23;100.00;102588.44;10425507;28;20077;-80
2022/12/02 16:50:27;;;;;;;3.13;2.75;;;;;;;1.21;100.00;102585.78;10399028;28;20382;-81
2022/12/02 16:55:28;;;;;;;7.50;2.38;;;;;;;1.21;100.00;102585.78;10408707;28;20092;-80
2022/12/02 17:00:30;;;;;;;1.88;1.58;;;;;;;1.19;100.00;102589.81;10387953;28;20080;-80
2022/12/02 17:05:31;;;;;;;2.00;1.13;;;;;;;1.16;100.00;102581.91;10411124;28;20049;-79
2022/12/02 17:10:34;;;;;;;1.25;1.10;;;;;;;1.19;100.00;102589.81;10411954;28;20042;-80
2022/12/02 17:15:36;;;;;;;1.63;1.42;;;;;;;1.19;100.00;102584.75;10375529;28;20088;-80
2022/12/02 17:20:37;;;;;;;4.30;2.60;;;;;;;1.19;100.00;102578.78;10393106;28;20046;-79
2022/12/02 17:25:39;;;;;;;3.92;2.30;;;;;;;1.20;100.00;102578.00;10389514;28;20453;-78
2022/12/02 17:30:41;;;;;;;1.70;0.93;;;;;;;1.19;100.00;102587.28;10439853;28;20042;-78
2022/12/02 17:35:42;;;;;;;1.05;0.45;;;;;;;1.16;100.00;102587.00;10400958;28;20594;-79
2022/12/02 17:40:44;;;;;;;2.00;1.27;;;;;;;1.15;100.00;102582.69;10386747;28;20076;-79
2022/12/02 17:45:45;;;;;;;0.68;0.63;;;;;;;1.13;100.00;102571.50;10375858;28;20126;-79
2022/12/02 17:50:47;;;;;;;2.20;1.70;;;;;;;1.12;100.00;102564.63;10408601;28;20046;-80
2022/12/02 17:55:49;;;;;;;2.33;1.25;;;;;;;1.13;100.00;102571.50;10425668;28;20374;-79
2022/12/02 18:00:51;;;;;;;0.15;0.15;;;;;;;1.14;100.00;102563.13;10423468;28;20076;-79
2022/12/02 18:05:52;;;;;;;0.28;0.25;;;;;;;1.14;100.00;102563.13;10421847;28;20081;-81
2022/12/02 18:10:54;;;;;;;0.52;0.52;;;;;;;1.14;100.00;102552.97;10406869;28;20069;-81
2022/12/02 18:15:56;;;;;;;1.85;0.77;;;;;;;1.15;100.00;102559.84;10420659;28;20050;-80
2022/12/02 18:20:58;;;;;;;1.25;0.40;;;;;;;1.14;100.00;102552.97;10409600;28;20094;-80
2022/12/02 18:25:59;;;;;;;2.67;1.80;;;;;;;1.10;100.00;102546.72;10409765;28;20440;-80
2022/12/02 18:31:03;;;;;;;0.95;0.77;;;;;;;1.13;100.00;102550.28;10419979;28;20045;-79
2022/12/02 18:36:05;;;;;;;0.50;0.50;;;;;;;1.12;100.00;102554.47;10426624;28;20080;-80
2022/12/02 18:41:07;;;;;;;1.02;0.95;;;;;;;1.10;100.00;102556.88;10399288;28;20042;-81
2022/12/02 18:46:09;;;;;;;0.43;0.43;;;;;;;1.11;100.00;102552.69;10397982;28;20056;-80
2022/12/02 18:51:15;;;;;;;1.23;1.13;;;;;;;1.08;100.00;102548.22;10392739;28;20179;-80
2022/12/02 18:56:20;;;;;;;0.55;0.45;;;;;;;1.10;100.00;102545.81;10414937;28;20049;-79
2022/12/02 19:01:25;;;;;;;0.38;0.38;;;;;;;1.07;100.00;102550.63;10438404;28;20048;-79
2022/12/02 19:06:34;;;;;;;1.75;1.10;;;;;;;1.02;100.00;102546.75;10411415;28;20103;-78
2022/12/02 19:11:35;;;;;;;3.00;1.15;;;;;;;1.02;100.00;102541.69;10410232;28;20083;-80
2022/12/02 19:16:41;;;;;;;1.08;0.80;;;;;;;0.97;100.00;102538.72;10432873;28;20080;-78
2022/12/02 19:21:43;;;;;;;2.20;1.05;;;;;;;0.95;100.00;102540.25;10396803;28;20054;-80
2022/12/02 19:26:45;;;;;;;1.30;0.70;;;;;;;0.96;100.00;102544.59;10418005;28;20045;-80
2022/12/02 19:31:47;;;;;;;2.55;0.80;;;;;;;0.92;100.00;102542.50;10430421;28;20049;-80
2022/12/02 19:36:48;;;;;;;0.38;0.38;;;;;;;0.93;100.00;102545.16;10402617;28;20041;-80
2022/12/02 19:41:50;;;;;;;9.38;0.57;;;;;;;0.86;100.00;102550.44;10418036;28;20057;-79
2022/12/02 19:46:52;;;;;;;0.75;0.43;;;;;;;0.87;100.00;102554.75;10422713;28;20520;-80
2022/12/02 19:51:57;;;;;;;0.25;0.25;;;;;;;0.88;100.00;102551.47;10415285;28;20046;-81
2022/12/02 19:56:58;;;;;;;2.70;2.15;;;;;;;0.83;100.00;102542.56;10410447;28;20037;-79
2022/12/02 20:02:01;;;;;;;0.68;0.30;;;;;;;0.83;100.00;102555.25;10416776;28;20045;-78
2022/12/02 20:07:03;;;;;;;0.80;0.80;;;;;;;0.82;100.00;102557.66;10444833;28;20421;-78
2022/12/02 20:12:05;;;;;;;1.90;1.05;;;;;;;0.80;100.00;102565.09;10382650;28;20042;-80
2022/12/02 20:17:07;;;;;;;0.65;0.65;;;;;;;0.80;100.00;102575.25;10410694;28;20091;-81
2022/12/02 20:22:26;;;;;;;0.20;0.20;;;;;;;0.80;100.00;102572.72;10420343;28;20041;-80
2022/12/02 20:27:28;;;;;;;0.47;0.47;;;;;;;0.76;100.00;102578.28;10433382;28;20513;-81
2022/12/02 20:32:30;;;;;;;0.52;0.52;;;;;;;0.72;100.00;102577.09;10404477;28;20103;-81
2022/12/02 20:37:32;;;;;;;0.10;0.10;;;;;;;0.71;100.00;102584.56;10445880;28;20042;-80
2022/12/02 20:42:34;;;;;;;1.90;1.70;;;;;;;0.70;100.00;102578.59;10415945;28;20077;-79
2022/12/02 20:47:35;;;;;;;3.70;0.93;;;;;;;0.72;100.00;102593.94;10429355;28;20064;-80
2022/12/02 20:52:39;;;;;;;1.08;0.50;;;;;;;0.71;100.00;102587.09;10431961;28;20049;-80
2022/12/02 20:57:41;;;;;;;9.45;2.13;;;;;;;0.69;100.00;102586.06;10415133;28;20053;-79
2022/12/02 21:02:46;;;;;;;1.30;0.55;;;;;;;0.72;100.00;102581.25;10396129;28;20050;-79
2022/12/02 21:07:48;;;;;;;0.95;0.85;;;;;;;0.74;100.00;102584.84;10402148;28;20084;-80
2022/12/02 21:12:49;;;;;;;2.78;1.73;;;;;;;0.76;100.00;102583.34;10397181;28;20054;-80
2022/12/02 21:18:07;;;;;;;0.55;0.55;;;;;;;0.76;100.00;102583.34;10397584;28;20045;-78
2022/12/02 21:23:09;;;;;;;0.80;0.73;;;;;;;0.76;100.00;102578.28;10402464;28;20067;-78
2022/12/02 21:28:11;;;;;;;1.58;1.38;;;;;;;0.73;100.00;102572.91;10401881;28;20049;-79
2022/12/02 21:33:14;;;;;;;0.60;0.22;;;;;;;0.75;100.00;102576.47;10399289;28;20093;-79
2022/12/02 21:38:20;;;;;;;0.57;0.57;;;;;;;0.76;100.00;102569.00;10404331;28;20064;-78
2022/12/02 21:43:22;;;;;;;1.80;1.10;;;;;;;0.74;100.00;102565.44;10390149;28;20038;-79
2022/12/02 21:48:26;;;;;;;0.65;0.65;;;;;;;0.76;100.00;102563.03;10400357;28;20042;-79
2022/12/02 21:53:28;;;;;;;0.88;0.88;;;;;;;0.77;100.00;102560.63;10405735;28;20792;-79
2022/12/02 21:58:32;;;;;;;1.15;0.90;;;;;;;0.77;100.00;102557.22;10395772;28;20068;-79
2022/12/02 22:03:34;;;;;;;0.52;0.52;;;;;;;0.81;100.00;102558.41;10407991;28;20061;-79
2022/12/02 22:08:37;;;;;;;1.63;0.95;;;;;;;0.83;100.00;102557.78;10457838;28;20057;-77
2022/12/02 22:13:38;;;;;;;1.38;1.27;;;;;;;0.84;100.00;102554.50;10390235;28;20053;-78
2022/12/02 22:18:41;;;;;;;0.90;0.90;;;;;;;0.86;100.00;102550.44;10404969;28;20042;-78
2022/12/02 22:23:43;;;;;;;1.83;0.70;;;;;;;0.84;100.00;102557.03;10415342;28;20053;-79
2022/12/02 22:28:45;;;;;;;0.85;0.85;;;;;;;0.93;100.00;102562.94;10394069;28;20087;-78
2022/12/02 22:33:46;;;;;;;0.88;0.80;;;;;;;0.91;100.00;102564.47;10390736;28;20120;-78
2022/12/02 22:38:48;;;;;;;0.55;0.55;;;;;;;0.89;100.00;102565.97;10394246;28;20053;-78
2022/12/02 22:43:49;;;;;;;0.60;0.60;;;;;;;0.89;100.00;102560.88;10418507;28;20049;-79
2022/12/02 22:48:51;;;;;;;5.03;1.10;;;;;;;0.91;100.00;102554.31;10412299;28;20104;-80
2022/12/02 22:53:53;;;;;;;0.30;0.30;;;;;;;0.91;100.00;102544.16;10409312;28;20077;-79
2022/12/02 22:58:54;;;;;;;1.80;1.00;;;;;;;0.92;100.00;102540.88;10417584;28;20413;-80
2022/12/02 23:03:56;;;;;;;1.58;0.80;;;;;;;0.89;100.00;102540.56;10409585;28;20049;-82
2022/12/02 23:08:58;;;;;;;0.25;0.25;;;;;;;0.92;100.00;102540.88;10414674;28;20496;-79
2022/12/02 23:14:02;;;;;;;0.65;0.63;;;;;;;0.91;100.00;102541.63;10393504;28;20049;-80
2022/12/02 23:19:04;;;;;;;0.82;0.82;;;;;;;0.89;100.00;102525.34;10413301;28;20098;-81
2022/12/02 23:24:08;;;;;;;1.15;1.05;;;;;;;0.93;100.00;102524.88;10413500;28;20124;-81
2022/12/02 23:29:09;;;;;;;4.13;2.15;;;;;;;0.90;100.00;102519.53;10406080;28;20125;-79